createdAt,value
2023-04-11T00:04:15.239Z,99241.60
2023-04-11T00:09:22.740Z,99243.73
2023-04-11T00:14:32.700Z,99234.02
2023-04-11T00:19:40.375Z,99236.05
2023-04-11T00:24:48.291Z,99233.98
2023-04-11T00:29:58.426Z,99227.63
2023-04-11T00:35:06.921Z,99224.91
2023-04-11T00:40:18.201Z,99222.77
2023-04-11T00:45:26.023Z,99220.83
2023-04-11T00:54:43.034Z,99210.71
2023-04-11T00:59:51.777Z,99195.59
2023-04-11T01:05:00.982Z,99183.67
2023-04-11T01:10:11.182Z,99180.03
2023-04-11T01:15:18.619Z,99172.95
2023-04-11T01:20:26.589Z,99167.59
2023-04-11T01:25:34.089Z,99163.36
2023-04-11T01:30:41.727Z,99163.53
2023-04-11T01:35:49.172Z,99160.33
2023-04-11T01:40:57.212Z,99154.30
2023-04-11T01:46:04.921Z,99148.20
2023-04-11T01:51:12.712Z,99143.93
2023-04-11T01:56:20.023Z,99141.55
2023-04-11T02:01:27.735Z,99132.40
2023-04-11T02:06:35.168Z,99121.66
2023-04-11T02:11:42.378Z,99111.20
2023-04-11T02:16:57.738Z,99110.61
2023-04-11T02:22:05.364Z,99112.98
2023-04-11T02:27:14.695Z,99113.09
2023-04-11T02:32:22.368Z,99111.38
2023-04-11T02:37:29.856Z,99104.98
2023-04-11T02:42:39.375Z,99099.65
2023-04-11T02:47:46.654Z,99095.09
2023-04-11T02:52:54.200Z,99090.33
2023-04-11T02:58:01.716Z,99085.05
2023-04-11T03:03:09.558Z,99083.75
2023-04-11T03:08:16.820Z,99079.94
2023-04-11T03:13:22.479Z,99078.86
2023-04-11T03:18:29.796Z,99077.09
2023-04-11T03:23:36.893Z,99066.55
2023-04-11T03:28:44.086Z,99062.89
2023-04-11T03:33:50.109Z,99058.17
2023-04-11T03:38:58.135Z,99054.20
2023-04-11T03:44:05.927Z,99057.84
2023-04-11T03:49:13.522Z,99056.03
2023-04-11T03:54:21.243Z,99041.60
2023-04-11T03:59:28.380Z,99036.67
2023-04-11T04:04:36.901Z,99029.64
2023-04-11T04:09:45.203Z,99029.27
2023-04-11T04:14:53.832Z,99033.92
2023-04-11T04:20:01.212Z,99036.66
2023-04-11T04:25:13.039Z,99053.48
2023-04-11T04:30:22.190Z,99056.89
2023-04-11T04:35:31.058Z,99047.32
2023-04-11T04:40:40.054Z,99044.65
2023-04-11T04:45:47.729Z,99041.16
2023-04-11T04:50:54.992Z,99033.74
2023-04-11T04:56:02.952Z,99030.80
2023-04-11T05:01:11.709Z,99017.49
2023-04-11T05:06:19.961Z,99008.75
2023-04-11T05:11:27.349Z,98997.07
2023-04-11T05:16:34.709Z,98994.77
2023-04-11T05:21:42.484Z,98983.30
2023-04-11T05:26:50.163Z,98984.66
2023-04-11T05:31:57.435Z,98994.50
2023-04-11T05:37:03.063Z,98990.49
2023-04-11T05:42:10.614Z,98979.38
2023-04-11T05:47:18.333Z,98964.57
2023-04-11T05:52:25.741Z,98960.70
2023-04-11T05:57:32.987Z,98960.51
2023-04-11T06:02:39.405Z,98961.79
2023-04-11T06:07:47.260Z,98957.25
2023-04-11T06:12:54.659Z,98946.69
2023-04-11T06:18:02.025Z,98933.84
2023-04-11T06:23:09.355Z,98924.20
2023-04-11T06:28:15.429Z,98920.70
2023-04-11T06:33:23.502Z,98913.12
2023-04-11T06:38:30.864Z,98905.30
2023-04-11T06:43:38.662Z,98896.55
2023-04-11T06:48:46.113Z,98890.70
2023-04-11T06:53:54.473Z,98895.93
2023-04-11T06:59:01.820Z,98902.39
2023-04-11T07:04:10.130Z,98898.23
2023-04-11T07:09:17.565Z,98896.73
2023-04-11T07:14:25.176Z,98891.59
2023-04-11T07:19:32.498Z,98886.27
2023-04-11T07:24:39.842Z,98881.72
2023-04-11T07:29:47.391Z,98878.79
2023-04-11T07:34:54.604Z,98877.53
2023-04-11T07:40:04.722Z,98870.83
2023-04-11T07:45:12.921Z,98866.29
2023-04-11T07:50:20.711Z,98861.02
2023-04-11T07:55:28.439Z,98850.30
2023-04-11T08:00:36.369Z,98851.45
2023-04-11T08:05:43.643Z,98841.02
2023-04-11T08:10:52.131Z,98833.46
2023-04-11T08:15:59.584Z,98821.41
2023-04-11T08:21:08.567Z,98816.52
2023-04-11T08:26:15.638Z,98814.02
2023-04-11T08:31:23.332Z,98805.82
2023-04-11T08:36:31.476Z,98793.02
2023-04-11T08:41:39.039Z,98781.98
2023-04-11T08:46:47.034Z,98769.48
2023-04-11T08:51:56.671Z,98741.18
2023-04-11T08:57:04.169Z,98730.70
2023-04-11T09:06:14.600Z,98722.35
2023-04-11T09:11:22.132Z,98707.30
2023-04-11T09:16:29.408Z,98702.06
2023-04-11T09:21:51.459Z,98701.02
2023-04-11T09:27:11.906Z,98705.80
2023-04-11T09:32:34.267Z,98684.10
2023-04-11T09:37:50.056Z,98677.27
2023-04-11T09:43:01.814Z,98668.00
2023-04-11T09:48:10.222Z,98664.22
2023-04-11T09:53:17.665Z,98653.29
2023-04-11T09:58:25.894Z,98640.85
2023-04-11T10:03:35.505Z,98630.27
2023-04-11T10:08:44.556Z,98612.52
2023-04-11T10:13:52.104Z,98606.68
2023-04-11T10:19:27.602Z,98597.20
2023-04-11T10:24:34.977Z,98587.55
2023-04-11T10:29:53.732Z,98580.65
2023-04-11T10:35:29.729Z,98572.95
2023-04-11T10:40:36.987Z,98562.46
2023-04-11T10:45:45.078Z,98558.20
2023-04-11T10:50:53.459Z,98551.83
2023-04-11T10:56:00.797Z,98548.42
2023-04-11T11:06:09.772Z,98547.47
2023-04-11T11:11:19.596Z,98545.47
2023-04-11T11:16:28.338Z,98538.70
2023-04-11T11:21:36.297Z,98537.35
2023-04-11T11:26:44.979Z,98530.95
2023-04-11T11:31:53.483Z,98525.60
2023-04-11T11:37:04.888Z,98522.84
2023-04-11T11:42:12.845Z,98517.86
2023-04-11T11:47:20.487Z,98505.46
2023-04-11T11:52:40.058Z,98496.55
2023-04-11T11:57:49.256Z,98497.55
2023-04-11T12:02:59.795Z,98491.73
2023-04-11T12:08:09.229Z,98486.21
2023-04-11T12:13:19.991Z,98478.16
2023-04-11T12:18:28.856Z,98475.36
2023-04-11T12:23:36.852Z,98468.33
2023-04-11T12:28:44.308Z,98464.20
2023-04-11T12:33:52.108Z,98460.12
2023-04-11T12:38:59.612Z,98456.78
2023-04-11T12:44:07.489Z,98453.16
2023-04-11T12:49:15.717Z,98445.21
2023-04-11T12:54:23.225Z,98436.37
2023-04-11T12:59:32.425Z,98427.23
2023-04-11T13:04:40.224Z,98420.02
2023-04-11T13:09:48.053Z,98408.29
2023-04-11T13:14:57.145Z,98404.89
2023-04-11T13:20:07.531Z,98397.21
2023-04-11T13:25:15.105Z,98390.99
2023-04-11T13:30:22.628Z,98380.11
2023-04-11T13:35:30.073Z,98371.21
2023-04-11T13:40:38.471Z,98359.89
2023-04-11T13:45:46.232Z,98356.92
2023-04-11T13:50:53.810Z,98346.77
2023-04-11T13:56:01.184Z,98342.94
2023-04-11T14:01:10.536Z,98336.70
2023-04-11T14:06:19.670Z,98324.71
2023-04-11T14:11:27.395Z,98317.11
2023-04-11T14:16:34.969Z,98314.15
2023-04-11T14:21:42.413Z,98308.02
2023-04-11T14:26:50.768Z,98307.02
2023-04-11T14:31:58.725Z,98304.17
2023-04-11T14:37:06.894Z,98302.79
2023-04-11T14:42:14.286Z,98299.62
2023-04-11T14:47:21.727Z,98295.29
2023-04-11T14:52:29.342Z,98291.42
2023-04-11T14:57:54.222Z,98284.64
2023-04-11T15:03:02.139Z,98284.67
2023-04-11T15:08:10.097Z,98278.95
2023-04-11T15:13:17.307Z,98282.34
2023-04-11T15:18:28.055Z,98275.42
2023-04-11T15:23:35.654Z,98275.52
2023-04-11T15:28:44.340Z,98269.52
2023-04-11T15:33:52.454Z,98264.46
2023-04-11T15:39:00.815Z,98259.23
2023-04-11T15:44:08.393Z,98252.02
2023-04-11T15:49:16.287Z,98249.69
2023-04-11T15:54:24.268Z,98242.44
2023-04-11T15:59:31.620Z,98232.24
2023-04-11T16:04:39.930Z,98226.20
2023-04-11T16:09:47.820Z,98226.13
2023-04-11T16:14:55.285Z,98245.41
2023-04-11T16:20:02.859Z,98261.40
2023-04-11T16:25:11.309Z,98286.85
2023-04-11T16:30:19.136Z,98299.99
2023-04-11T16:35:26.626Z,98305.52
2023-04-11T16:40:35.184Z,98316.59
2023-04-11T16:45:42.522Z,98330.73
2023-04-11T16:54:19.670Z,98341.11
2023-04-11T16:59:24.060Z,98349.02
2023-04-11T17:04:28.562Z,98346.67
2023-04-11T17:09:32.883Z,98351.80
2023-04-11T17:14:37.545Z,98353.80
2023-04-11T17:19:41.710Z,98358.38
2023-04-11T17:24:46.043Z,98355.20
2023-04-11T17:29:50.686Z,98357.04
2023-04-11T17:34:55.101Z,98361.66
2023-04-11T17:39:59.090Z,98369.07
2023-04-11T17:45:16.708Z,98369.20
2023-04-11T17:50:22.426Z,98372.76
2023-04-11T17:56:21.526Z,98378.36
2023-04-11T18:01:46.240Z,98376.78
2023-04-11T18:06:50.824Z,98383.73
2023-04-11T18:11:57.102Z,98392.05
2023-04-11T18:17:01.397Z,98400.21
2023-04-11T18:22:06.227Z,98403.36
2023-04-11T18:27:10.672Z,98409.14
2023-04-11T18:32:16.173Z,98417.05
2023-04-11T18:37:22.609Z,98426.58
2023-04-11T18:42:28.135Z,98430.09
2023-04-11T18:47:32.630Z,98431.89
2023-04-11T18:52:37.623Z,98435.63
2023-04-11T18:57:45.564Z,98433.83
2023-04-11T19:02:52.657Z,98438.55
2023-04-11T19:07:57.484Z,98441.75
2023-04-11T19:13:02.069Z,98448.35
2023-04-11T19:18:08.743Z,98458.53
2023-04-11T19:23:14.096Z,98465.77
2023-04-11T19:28:18.786Z,98473.33
2023-04-11T19:33:25.635Z,98476.20
2023-04-11T19:38:29.255Z,98470.67
2023-04-11T19:43:33.722Z,98482.84
2023-04-11T19:48:38.179Z,98479.45
2023-04-11T19:53:42.832Z,98486.17
2023-04-11T19:58:47.088Z,98480.53
2023-04-11T20:03:53.598Z,98486.48
2023-04-11T20:08:58.892Z,98487.42
2023-04-11T20:14:03.961Z,98487.70
2023-04-11T20:19:09.038Z,98491.83
2023-04-11T20:24:15.060Z,98491.25
2023-04-11T20:29:20.719Z,98498.45
2023-04-11T20:34:25.321Z,98501.78
2023-04-11T20:39:30.265Z,98504.34
2023-04-11T20:44:35.806Z,98505.37
2023-04-11T20:49:40.149Z,98511.02
2023-04-11T20:54:44.384Z,98509.70
2023-04-11T20:59:50.116Z,98510.04
2023-04-11T21:04:54.945Z,98511.73
2023-04-11T21:10:01.180Z,98510.98
2023-04-11T21:15:08.218Z,98507.89
2023-04-11T21:20:17.883Z,98511.08
2023-04-11T21:25:23.327Z,98513.79
2023-04-11T21:30:27.554Z,98518.30
2023-04-11T21:35:32.638Z,98520.57
2023-04-11T21:40:36.781Z,98518.55
2023-04-11T21:45:40.995Z,98522.38
2023-04-11T21:50:45.996Z,98518.83
2023-04-11T21:55:50.223Z,98515.09
2023-04-11T22:00:54.982Z,98508.02
2023-04-11T22:05:59.413Z,98509.71
2023-04-11T22:11:07.413Z,98513.13
2023-04-11T22:16:13.648Z,98513.61
2023-04-11T22:21:19.448Z,98513.77
2023-04-11T22:26:29.101Z,98518.63
2023-04-11T22:31:34.720Z,98521.13
2023-04-11T22:36:40.057Z,98524.73
2023-04-11T22:41:47.284Z,98522.41
2023-04-11T22:47:07.458Z,98526.90
2023-04-11T22:52:14.526Z,98523.53
2023-04-11T22:57:17.554Z,98521.69
2023-04-11T23:02:23.122Z,98521.19
2023-04-11T23:07:28.061Z,98519.33
2023-04-11T23:12:32.607Z,98518.46
2023-04-11T23:17:38.009Z,98512.94
2023-04-11T23:22:43.584Z,98506.16
2023-04-11T23:27:47.860Z,98506.77
2023-04-11T23:32:52.975Z,98503.89
2023-04-11T23:37:57.138Z,98499.54
2023-04-11T23:43:01.156Z,98494.05
2023-04-11T23:48:06.306Z,98489.06
2023-04-11T23:53:11.415Z,98483.80
2023-04-11T23:58:16.038Z,98481.29
